createdAt,value
2022-09-12T00:02:22.354Z,3.72
2022-09-12T00:05:26.165Z,3.83
2022-09-12T00:08:28.642Z,3.80
2022-09-12T00:11:31.607Z,3.95
2022-09-12T00:14:34.149Z,3.75
2022-09-12T00:17:38.440Z,3.53
2022-09-12T00:20:46.595Z,3.55
2022-09-12T00:23:50.661Z,4.28
2022-09-12T00:26:53.298Z,3.53
2022-09-12T00:29:56.314Z,3.80
2022-09-12T00:32:58.884Z,4.10
2022-09-12T00:36:05.723Z,4.10
2022-09-12T00:39:09.216Z,4.10
2022-09-12T00:42:12.693Z,4.15
2022-09-12T00:45:26.475Z,3.97
2022-09-12T00:48:37.285Z,4.15
2022-09-12T00:52:03.237Z,4.18
2022-09-12T00:55:21.098Z,4.20
2022-09-12T00:58:28.739Z,4.28
2022-09-12T01:01:32.913Z,4.03
2022-09-12T01:04:38.691Z,3.97
2022-09-12T01:07:42.801Z,4.10
2022-09-12T01:10:46.159Z,3.85
2022-09-12T01:13:50.623Z,3.90
2022-09-12T01:16:53.235Z,4.22
2022-09-12T01:20:17.694Z,4.18
2022-09-12T01:23:45.969Z,4.53
2022-09-12T01:27:16.631Z,4.60
2022-09-12T01:33:51.860Z,4.47
2022-09-12T01:37:19.446Z,4.32
2022-09-12T01:40:25.239Z,4.30
2022-09-12T01:43:37.684Z,4.50
2022-09-12T01:47:03.192Z,4.47
2022-09-12T01:50:18.743Z,4.80
2022-09-12T01:53:27.469Z,4.62
2022-09-12T01:56:35.615Z,4.75
2022-09-12T01:59:47.498Z,4.20
2022-09-12T02:02:57.391Z,4.72
2022-09-12T02:06:06.591Z,4.40
2022-09-12T02:09:18.592Z,4.18
2022-09-12T02:12:27.595Z,4.30
2022-09-12T02:15:38.410Z,4.15
2022-09-12T02:18:46.692Z,4.32
2022-09-12T02:21:55.903Z,4.05
2022-09-12T02:25:00.878Z,4.05
2022-09-12T02:28:27.725Z,4.18
2022-09-12T02:31:37.409Z,4.20
2022-09-12T02:35:03.320Z,4.93
2022-09-12T02:38:29.378Z,5.57
2022-09-12T02:41:32.010Z,5.32
2022-09-12T02:44:36.316Z,5.45
2022-09-12T02:47:53.888Z,5.70
2022-09-12T02:50:57.431Z,5.70
2022-09-12T02:54:00.404Z,6.00
2022-09-12T02:57:03.339Z,6.32
2022-09-12T03:00:07.372Z,6.43
2022-09-12T03:03:22.358Z,7.07
2022-09-12T03:06:40.966Z,6.60
2022-09-12T03:10:51.761Z,7.35
2022-09-12T03:13:54.099Z,7.00
2022-09-12T03:17:04.599Z,7.40
2022-09-12T03:20:20.022Z,6.70
2022-09-12T03:23:40.518Z,6.32
2022-09-12T03:29:52.084Z,6.32
2022-09-12T03:32:55.379Z,6.18
2022-09-12T03:35:58.813Z,6.07
2022-09-12T03:39:01.258Z,6.10
2022-09-12T03:42:04.142Z,5.78
2022-09-12T03:45:07.647Z,5.78
2022-09-12T03:48:10.386Z,5.87
2022-09-12T03:51:12.931Z,4.65
2022-09-12T03:54:15.796Z,5.20
2022-09-12T03:57:18.738Z,5.03
2022-09-12T04:00:22.659Z,5.00
2022-09-12T04:03:25.503Z,5.28
2022-09-12T04:06:28.004Z,5.43
2022-09-12T04:09:30.801Z,5.37
2022-09-12T04:12:33.356Z,5.70
2022-09-12T04:15:36.032Z,5.97
2022-09-12T04:18:39.070Z,5.60
2022-09-12T04:21:41.880Z,5.97
2022-09-12T04:24:44.359Z,5.70
2022-09-12T04:27:47.107Z,6.05
2022-09-12T04:30:50.120Z,5.95
2022-09-12T04:33:57.904Z,5.75
2022-09-12T04:37:00.477Z,5.60
2022-09-12T04:40:03.440Z,5.45
2022-09-12T04:43:08.456Z,5.25
2022-09-12T04:46:16.661Z,6.28
2022-09-12T04:49:19.513Z,5.47
2022-09-12T04:52:22.362Z,5.90
2022-09-12T04:55:25.345Z,5.55
2022-09-12T04:58:28.128Z,5.57
2022-09-12T05:01:30.678Z,5.10
2022-09-12T05:04:33.632Z,5.45
2022-09-12T05:07:36.185Z,5.45
2022-09-12T05:10:38.995Z,5.75
2022-09-12T05:13:41.747Z,5.35
2022-09-12T05:16:49.055Z,5.90
2022-09-12T05:19:52.174Z,5.65
2022-09-12T05:22:55.847Z,4.90
2022-09-12T05:25:59.378Z,5.03
2022-09-12T05:29:05.231Z,4.30
2022-09-12T05:32:07.719Z,4.03
2022-09-12T05:35:11.175Z,4.35
2022-09-12T05:38:13.612Z,4.70
2022-09-12T05:41:24.255Z,5.50
2022-09-12T05:44:28.223Z,4.90
2022-09-12T05:47:31.259Z,5.40
2022-09-12T05:50:33.815Z,5.57
2022-09-12T05:53:38.270Z,5.93
2022-09-12T05:56:42.810Z,6.50
2022-09-12T05:59:45.965Z,5.97
2022-09-12T06:02:53.302Z,5.80
2022-09-12T06:05:56.146Z,6.28
2022-09-12T06:09:00.697Z,5.80
2022-09-12T06:12:03.977Z,6.30
2022-09-12T06:15:08.066Z,6.00
2022-09-12T06:18:10.987Z,6.10
2022-09-12T06:21:14.480Z,5.53
2022-09-12T06:24:18.619Z,5.93
2022-09-12T06:27:21.100Z,6.40
2022-09-12T06:30:25.542Z,5.50
2022-09-12T06:33:28.187Z,5.80
2022-09-12T06:36:45.825Z,6.05
2022-09-12T06:39:48.718Z,5.55
2022-09-12T06:42:51.432Z,5.60
2022-09-12T06:46:02.532Z,5.37
2022-09-12T06:49:05.276Z,5.12
2022-09-12T06:52:07.773Z,4.70
2022-09-12T06:55:10.711Z,5.18
2022-09-12T06:58:13.194Z,4.97
2022-09-12T07:01:23.563Z,4.82
2022-09-12T07:04:26.244Z,5.15
2022-09-12T07:07:29.900Z,5.43
2022-09-12T07:10:32.541Z,5.40
2022-09-12T07:13:35.290Z,4.70
2022-09-12T07:16:38.172Z,5.15
2022-09-12T07:19:41.501Z,4.57
2022-09-12T07:22:43.983Z,4.30
2022-09-12T07:25:57.543Z,4.43
2022-09-12T07:29:25.256Z,4.00
2022-09-12T07:32:23.827Z,3.67
2022-09-12T07:35:26.333Z,2.83
2022-09-12T07:38:29.997Z,4.28
2022-09-12T07:41:36.190Z,4.00
2022-09-12T07:44:39.034Z,3.97
2022-09-12T07:47:41.502Z,4.00
2022-09-12T07:50:45.192Z,4.12
2022-09-12T07:53:49.372Z,3.95
2022-09-12T07:56:52.383Z,4.15
2022-09-12T07:59:54.933Z,3.70
2022-09-12T08:02:57.785Z,3.30
2022-09-12T08:06:12.641Z,3.30
2022-09-12T08:09:17.425Z,3.47
2022-09-12T08:12:20.440Z,3.30
2022-09-12T08:15:22.908Z,3.20
2022-09-12T08:18:30.334Z,3.25
2022-09-12T08:21:34.122Z,3.05
2022-09-12T08:24:37.221Z,3.50
2022-09-12T08:27:39.778Z,3.22
2022-09-12T08:30:42.526Z,3.42
2022-09-12T08:33:45.302Z,3.05
2022-09-12T08:36:48.214Z,2.97
2022-09-12T08:39:52.735Z,2.62
2022-09-12T08:43:26.079Z,2.60
2022-09-12T08:46:50.440Z,2.40
2022-09-12T08:50:05.610Z,2.15
2022-09-12T08:53:21.865Z,2.37
2022-09-12T08:56:31.542Z,2.20
2022-09-12T08:59:42.161Z,2.20
2022-09-12T09:03:00.137Z,3.08
2022-09-12T09:06:23.887Z,2.25
2022-09-12T09:09:59.175Z,2.42
2022-09-12T09:13:35.929Z,2.00
2022-09-12T09:16:41.458Z,3.28
2022-09-12T09:19:50.918Z,2.17
2022-09-12T09:26:32.697Z,2.47
2022-09-12T09:29:41.919Z,2.60
2022-09-12T09:32:50.463Z,2.15
2022-09-12T09:36:14.913Z,2.40
2022-09-12T09:39:28.620Z,1.75
2022-09-12T09:43:04.871Z,1.80
2022-09-12T09:46:08.118Z,1.65
2022-09-12T09:49:14.643Z,2.20
2022-09-12T09:52:29.496Z,2.12
2022-09-12T09:55:42.398Z,1.60
2022-09-12T09:58:45.124Z,1.65
2022-09-12T10:01:54.677Z,2.08
2022-09-12T10:04:59.793Z,1.80
2022-09-12T10:08:04.848Z,2.05
2022-09-12T10:11:20.115Z,1.77
2022-09-12T10:14:28.481Z,1.85
2022-09-12T10:17:44.457Z,1.73
2022-09-12T10:20:47.075Z,1.60
2022-09-12T10:23:59.952Z,1.73
2022-09-12T10:27:20.275Z,1.77
2022-09-12T10:30:27.982Z,1.40
2022-09-12T10:33:37.429Z,1.67
2022-09-12T10:36:40.845Z,1.77
2022-09-12T10:39:53.466Z,1.70
2022-09-12T10:43:01.059Z,1.73
2022-09-12T10:46:15.994Z,1.70
2022-09-12T10:49:25.832Z,1.60
2022-09-12T10:52:28.547Z,1.90
2022-09-12T10:55:34.983Z,1.50
2022-09-12T10:58:53.709Z,1.65
2022-09-12T11:02:30.097Z,1.60
2022-09-12T11:05:45.986Z,1.60
2022-09-12T11:09:15.863Z,1.80
2022-09-12T11:12:43.692Z,1.50
2022-09-12T11:16:07.041Z,1.65
2022-09-12T11:19:26.131Z,1.73
2022-09-12T11:22:41.031Z,1.98
2022-09-12T11:26:18.565Z,1.48
2022-09-12T11:29:52.627Z,1.27
2022-09-12T11:33:02.450Z,1.30
2022-09-12T11:36:13.708Z,1.10
2022-09-12T11:39:21.684Z,1.02
2022-09-12T11:42:35.668Z,0.95
2022-09-12T11:45:44.704Z,1.25
2022-09-12T11:48:59.461Z,1.20
2022-09-12T11:52:11.025Z,1.58
2022-09-12T11:55:19.443Z,2.00
2022-09-12T11:58:26.648Z,1.80
2022-09-12T12:01:42.941Z,1.40
2022-09-12T12:05:17.341Z,1.65
2022-09-12T12:08:25.203Z,1.62
2022-09-12T12:11:39.857Z,1.98
2022-09-12T12:14:46.757Z,1.77
2022-09-12T12:18:03.502Z,1.62
2022-09-12T12:21:42.302Z,1.80
2022-09-12T12:25:21.572Z,1.62
2022-09-12T12:28:43.128Z,1.77
2022-09-12T12:32:02.103Z,1.52
2022-09-12T12:35:42.365Z,1.70
2022-09-12T12:38:45.311Z,1.42
2022-09-12T12:41:47.920Z,1.60
2022-09-12T12:44:51.593Z,1.30
2022-09-12T12:47:58.150Z,1.80
2022-09-12T12:51:28.944Z,1.50
2022-09-12T12:54:49.607Z,1.25
2022-09-12T12:57:55.133Z,1.50
2022-09-12T13:01:09.621Z,1.40
2022-09-12T13:04:17.936Z,1.20
2022-09-12T13:07:33.663Z,1.20
2022-09-12T13:10:37.474Z,1.23
2022-09-12T13:13:58.522Z,1.30
2022-09-12T13:17:06.386Z,1.10
2022-09-12T13:20:29.643Z,1.20
2022-09-12T13:23:35.220Z,1.20
2022-09-12T13:26:43.926Z,1.60
2022-09-12T13:29:47.379Z,1.17
2022-09-12T13:32:50.167Z,1.42
2022-09-12T13:36:27.159Z,1.30
2022-09-12T13:39:38.233Z,1.17
2022-09-12T13:43:05.671Z,1.30
2022-09-12T13:46:10.153Z,1.20
2022-09-12T13:49:35.231Z,1.02
2022-09-12T13:52:38.718Z,1.00
2022-09-12T13:55:46.159Z,1.10
2022-09-12T13:58:57.673Z,1.10
2022-09-12T14:02:00.668Z,0.82
2022-09-12T14:05:24.244Z,0.65
2022-09-12T14:08:26.995Z,0.82
2022-09-12T14:11:30.989Z,0.85
2022-09-12T14:14:36.563Z,0.70
2022-09-12T14:17:43.111Z,0.90
2022-09-12T14:20:45.784Z,0.90
2022-09-12T14:23:49.291Z,0.80
2022-09-12T14:26:56.680Z,0.82
2022-09-12T14:30:09.111Z,0.77
2022-09-12T14:33:11.597Z,0.88
2022-09-12T14:36:52.834Z,0.90
2022-09-12T14:39:56.273Z,0.90
2022-09-12T14:43:01.213Z,0.88
2022-09-12T14:46:20.437Z,0.80
2022-09-12T14:49:36.608Z,0.90
2022-09-12T14:52:40.130Z,1.00
2022-09-12T14:55:46.434Z,0.80
2022-09-12T14:58:49.745Z,0.70
2022-09-12T15:02:20.665Z,0.80
2022-09-12T15:05:26.498Z,0.90
2022-09-12T15:08:30.475Z,0.90
2022-09-12T15:11:33.920Z,1.50
2022-09-12T15:14:36.899Z,0.80
2022-09-12T15:17:39.486Z,0.90
2022-09-12T15:20:46.356Z,0.80
2022-09-12T15:23:50.777Z,0.95
2022-09-12T15:26:53.733Z,1.08
2022-09-12T15:29:56.382Z,0.90
2022-09-12T15:33:00.117Z,0.95
2022-09-12T15:36:02.881Z,0.75
2022-09-12T15:39:05.639Z,0.93
2022-09-12T15:42:11.088Z,0.70
2022-09-12T15:45:21.910Z,0.90
2022-09-12T15:48:24.572Z,1.10
2022-09-12T15:51:27.768Z,1.00
2022-09-12T15:54:30.398Z,0.70
2022-09-12T15:57:33.110Z,0.85
2022-09-12T16:00:35.676Z,0.77
2022-09-12T16:03:38.496Z,0.70
2022-09-12T16:06:40.936Z,0.98
2022-09-12T16:09:43.681Z,1.00
2022-09-12T16:12:46.268Z,0.85
2022-09-12T16:15:49.170Z,0.80
2022-09-12T16:18:51.783Z,1.05
2022-09-12T16:21:54.506Z,0.80
2022-09-12T16:24:56.963Z,1.00
2022-09-12T16:28:01.523Z,0.90
2022-09-12T16:31:05.978Z,0.73
2022-09-12T16:34:08.832Z,0.80
2022-09-12T16:37:11.550Z,0.88
2022-09-12T16:40:17.828Z,1.00
2022-09-12T16:43:20.458Z,1.00
2022-09-12T16:46:30.573Z,1.08
2022-09-12T16:49:33.115Z,0.90
2022-09-12T16:52:35.859Z,0.95
2022-09-12T16:55:38.332Z,1.00
2022-09-12T16:58:42.360Z,1.10
2022-09-12T17:01:45.309Z,0.80
2022-09-12T17:04:48.841Z,1.30
2022-09-12T17:07:51.961Z,1.00
2022-09-12T17:11:06.509Z,0.95
2022-09-12T17:14:10.276Z,0.95
2022-09-12T17:17:13.099Z,1.02
2022-09-12T17:20:15.641Z,1.20
2022-09-12T17:23:18.359Z,1.30
2022-09-12T17:26:21.289Z,1.02
2022-09-12T17:29:24.030Z,1.30
2022-09-12T17:32:26.608Z,1.08
2022-09-12T17:35:29.406Z,0.90
2022-09-12T17:38:34.699Z,1.10
2022-09-12T17:41:37.754Z,1.10
2022-09-12T17:44:40.525Z,1.30
2022-09-12T17:47:43.287Z,1.00
2022-09-12T17:50:46.625Z,1.00
2022-09-12T17:53:49.360Z,1.10
2022-09-12T17:56:52.247Z,1.10
2022-09-12T17:59:55.011Z,1.10
2022-09-12T18:02:57.996Z,1.10
2022-09-12T18:06:01.022Z,1.37
2022-09-12T18:09:06.596Z,1.10
2022-09-12T18:12:09.513Z,1.00
2022-09-12T18:15:12.037Z,1.10
2022-09-12T18:18:14.752Z,1.25
2022-09-12T18:21:17.925Z,1.20
2022-09-12T18:24:21.041Z,1.10
2022-09-12T18:27:23.630Z,1.20
2022-09-12T18:30:26.808Z,1.30
2022-09-12T18:33:29.312Z,1.40
2022-09-12T18:36:32.360Z,1.20
2022-09-12T18:39:34.912Z,1.60
2022-09-12T18:42:37.724Z,1.50
2022-09-12T18:45:40.409Z,1.10
2022-09-12T18:48:44.907Z,1.08
2022-09-12T18:51:47.437Z,1.35
2022-09-12T18:54:50.292Z,1.40
2022-09-12T18:57:53.003Z,1.58
2022-09-12T19:00:56.143Z,1.60
2022-09-12T19:03:59.235Z,1.27
2022-09-12T19:07:02.223Z,1.35
2022-09-12T19:10:05.189Z,1.45
2022-09-12T19:13:07.943Z,1.30
2022-09-12T19:16:13.571Z,1.50
2022-09-12T19:19:16.917Z,1.50
2022-09-12T19:22:19.395Z,1.40
2022-09-12T19:25:22.273Z,1.50
2022-09-12T19:28:24.869Z,1.70
2022-09-12T19:31:27.769Z,1.60
2022-09-12T19:34:30.405Z,1.55
2022-09-12T19:37:33.120Z,1.77
2022-09-12T19:40:36.444Z,1.60
2022-09-12T19:43:40.065Z,1.52
2022-09-12T19:46:42.777Z,1.77
2022-09-12T19:49:45.783Z,1.77
2022-09-12T19:52:48.287Z,1.62
2022-09-12T19:55:51.070Z,1.42
2022-09-12T19:58:56.739Z,1.50
2022-09-12T20:02:00.044Z,1.58
2022-09-12T20:05:02.897Z,1.73
2022-09-12T20:08:05.412Z,1.70
2022-09-12T20:11:11.299Z,1.85
2022-09-12T20:14:14.079Z,1.50
2022-09-12T20:17:16.911Z,1.52
2022-09-12T20:20:19.381Z,1.60
2022-09-12T20:23:23.577Z,1.73
2022-09-12T20:26:26.648Z,1.62
2022-09-12T20:29:29.458Z,1.60
2022-09-12T20:32:31.961Z,1.62
2022-09-12T20:35:34.747Z,1.50
2022-09-12T20:38:37.337Z,1.80
2022-09-12T20:41:40.441Z,1.50
2022-09-12T20:44:42.899Z,1.50
2022-09-12T20:47:45.740Z,1.58
2022-09-12T20:50:48.225Z,1.70
2022-09-12T20:53:55.229Z,1.60
2022-09-12T20:56:57.724Z,1.80
2022-09-12T21:00:00.510Z,2.00
2022-09-12T21:03:03.557Z,2.12
2022-09-12T21:06:08.238Z,1.75
2022-09-12T21:09:10.880Z,1.92
2022-09-12T21:12:13.608Z,2.03
2022-09-12T21:15:16.038Z,1.83
2022-09-12T21:18:18.761Z,1.55
2022-09-12T21:21:21.425Z,1.80
2022-09-12T21:24:24.726Z,1.60
2022-09-12T21:27:27.805Z,1.60
2022-09-12T21:30:30.508Z,1.67
2022-09-12T21:33:32.982Z,1.80
2022-09-12T21:36:35.643Z,1.62
2022-09-12T21:39:38.111Z,1.95
2022-09-12T21:42:40.801Z,1.90
2022-09-12T21:45:43.159Z,2.08
2022-09-12T21:48:45.993Z,1.70
2022-09-12T21:51:48.536Z,1.90
2022-09-12T21:54:51.317Z,1.98
2022-09-12T21:57:54.798Z,1.60
2022-09-12T22:00:57.540Z,1.80
2022-09-12T22:04:00.443Z,1.80
2022-09-12T22:07:02.991Z,1.80
2022-09-12T22:10:06.463Z,2.00
2022-09-12T22:13:09.282Z,2.00
2022-09-12T22:16:12.335Z,2.10
2022-09-12T22:19:15.134Z,2.28
2022-09-12T22:22:36.358Z,1.80
2022-09-12T22:25:39.313Z,2.00
2022-09-12T22:28:43.066Z,2.00
2022-09-12T22:31:45.609Z,2.33
2022-09-12T22:34:48.407Z,2.33
2022-09-12T22:37:50.981Z,2.30
2022-09-12T22:40:53.996Z,2.70
2022-09-12T22:43:57.173Z,2.85
2022-09-12T22:47:00.110Z,2.90
2022-09-12T22:50:03.662Z,2.33
2022-09-12T22:53:06.432Z,2.65
2022-09-12T22:56:09.435Z,2.58
2022-09-12T22:59:12.177Z,2.50
2022-09-12T23:02:14.672Z,2.53
2022-09-12T23:05:17.383Z,2.42
2022-09-12T23:08:19.849Z,2.70
2022-09-12T23:11:23.270Z,2.70
2022-09-12T23:14:25.698Z,2.55
2022-09-12T23:17:28.557Z,2.42
2022-09-12T23:20:31.263Z,2.25
2022-09-12T23:23:35.358Z,2.60
2022-09-12T23:26:37.833Z,2.40
2022-09-12T23:29:40.517Z,2.60
2022-09-12T23:32:42.965Z,2.70
2022-09-12T23:35:46.463Z,2.37
2022-09-12T23:38:49.637Z,2.33
2022-09-12T23:41:52.381Z,2.70
2022-09-12T23:44:54.926Z,2.47
2022-09-12T23:47:57.665Z,2.60
2022-09-12T23:51:00.597Z,2.30
2022-09-12T23:54:03.537Z,2.35
2022-09-12T23:57:06.177Z,2.50
